Time;durP1;ratioP1;P1;durP2;ratioP2;P2;SDS_P1;SDS_P2;PMS_P1;PMS_P2;Temp;Humidity;BMP_temperature;BMP_pressure;BME280_temperature;BME280_humidity;BME280_pressure;Samples;Min_cycle;Max_cycle;Signal;HPM_P1;HPM_P2
2021/05/21 00:00:00;;;;;;;2.83;2.63;;;11.30;99.90;;;;;;5095798;28;20333;-40
2021/05/21 00:02:27;;;;;;;3.05;2.70;;;11.20;99.90;;;;;;5095972;28;20215;-40
2021/05/21 00:04:56;;;;;;;3.58;2.80;;;11.20;99.90;;;;;;5095704;28;20210;-39
2021/05/21 00:07:23;;;;;;;3.20;2.70;;;11.10;99.90;;;;;;5096037;28;20211;-40
2021/05/21 00:09:50;;;;;;;4.28;2.90;;;11.10;99.90;;;;;;5095833;28;20318;-40
2021/05/21 00:12:19;;;;;;;2.60;2.40;;;11.10;99.90;;;;;;5095514;28;20242;-40
2021/05/21 00:14:46;;;;;;;4.15;3.42;;;11.10;99.90;;;;;;5095975;28;20210;-40
2021/05/21 00:17:14;;;;;;;3.03;2.72;;;11.10;99.90;;;;;;5095949;28;20252;-40
2021/05/21 00:19:41;;;;;;;2.88;2.60;;;11.00;99.90;;;;;;5095878;28;20207;-40
2021/05/21 00:22:09;;;;;;;2.88;2.67;;;11.00;99.90;;;;;;5095713;28;20375;-40
2021/05/21 00:24:36;;;;;;;2.95;2.45;;;11.00;99.90;;;;;;5095612;28;20294;-40
2021/05/21 00:27:04;;;;;;;7.22;6.53;;;11.00;99.90;;;;;;5095908;28;20289;-41
2021/05/21 00:29:32;;;;;;;7.32;5.95;;;10.90;99.90;;;;;;5095601;28;20632;-40
2021/05/21 00:32:00;;;;;;;6.65;5.95;;;10.90;99.90;;;;;;5095597;28;20206;-39
2021/05/21 00:34:27;;;;;;;19.17;17.05;;;11.00;99.90;;;;;;5095399;28;20289;-40
2021/05/21 00:36:55;;;;;;;5.55;4.95;;;11.00;99.90;;;;;;5095338;28;20207;-40
2021/05/21 00:39:22;;;;;;;10.23;9.40;;;11.00;99.90;;;;;;5095235;28;20255;-41
2021/05/21 00:41:49;;;;;;;4.75;4.35;;;11.00;99.90;;;;;;5095350;28;20511;-42
2021/05/21 00:44:17;;;;;;;4.57;2.88;;;11.00;99.90;;;;;;5095307;28;20207;-39
2021/05/21 00:46:45;;;;;;;3.08;2.78;;;11.00;99.90;;;;;;5095340;28;20238;-40
2021/05/21 00:49:17;;;;;;;5.30;3.78;;;11.00;99.90;;;;;;5095061;28;20233;-41
2021/05/21 00:51:45;;;;;;;3.35;2.45;;;11.00;99.90;;;;;;5095083;28;20580;-40
2021/05/21 00:54:15;;;;;;;3.05;2.85;;;10.90;99.90;;;;;;5095185;28;20207;-40
2021/05/21 00:56:43;;;;;;;10.88;9.45;;;10.90;99.90;;;;;;5095997;28;20211;-40
2021/05/21 00:59:11;;;;;;;3.65;3.33;;;10.90;99.90;;;;;;5095456;28;20286;-40
2021/05/21 01:01:38;;;;;;;5.53;3.45;;;10.90;99.90;;;;;;5093790;28;20565;-40
2021/05/21 01:04:07;;;;;;;2.92;2.25;;;10.90;99.90;;;;;;5094594;28;20590;-39
2021/05/21 01:06:34;;;;;;;3.95;3.55;;;10.90;99.90;;;;;;5094700;28;20540;-39
2021/05/21 01:09:02;;;;;;;3.53;3.22;;;10.90;99.90;;;;;;5094579;28;20242;-40
2021/05/21 01:11:29;;;;;;;2.42;2.22;;;10.90;99.90;;;;;;5094552;28;20249;-39
2021/05/21 01:13:56;;;;;;;7.05;6.35;;;10.90;99.90;;;;;;5094399;28;20333;-41
2021/05/21 01:16:24;;;;;;;5.68;2.60;;;10.90;99.90;;;;;;5094382;28;20245;-39
2021/05/21 01:18:51;;;;;;;3.45;3.25;;;10.90;99.90;;;;;;5094528;28;20305;-39
2021/05/21 01:21:20;;;;;;;3.35;3.05;;;10.90;99.90;;;;;;5094863;28;20310;-40
2021/05/21 01:23:47;;;;;;;2.55;2.35;;;10.90;99.90;;;;;;5094568;28;20272;-41
2021/05/21 01:26:15;;;;;;;9.75;7.35;;;11.00;99.90;;;;;;5094501;28;20623;-39
2021/05/21 01:28:42;;;;;;;4.28;3.25;;;11.00;99.90;;;;;;5094536;28;20345;-39
2021/05/21 01:31:10;;;;;;;3.25;2.22;;;11.00;99.90;;;;;;5094165;28;20227;-38
2021/05/21 01:33:37;;;;;;;3.63;2.75;;;11.10;99.90;;;;;;5094493;28;20605;-40
2021/05/21 01:36:05;;;;;;;3.35;2.47;;;11.10;99.90;;;;;;5094289;28;20559;-42
2021/05/21 01:38:33;;;;;;;3.03;2.72;;;11.00;99.90;;;;;;5094139;28;20242;-40
2021/05/21 01:41:02;;;;;;;4.20;2.60;;;11.00;99.90;;;;;;5094118;28;20286;-42
2021/05/21 01:43:29;;;;;;;3.30;3.08;;;11.00;99.90;;;;;;5094046;28;20677;-39
2021/05/21 01:45:58;;;;;;;3.10;2.90;;;11.00;99.90;;;;;;5093914;28;20691;-39
2021/05/21 01:48:26;;;;;;;7.25;6.55;;;11.00;99.90;;;;;;5094120;28;20246;-39
2021/05/21 01:50:53;;;;;;;2.90;2.53;;;11.00;99.90;;;;;;5093545;28;20227;-39
2021/05/21 01:53:21;;;;;;;3.42;2.35;;;11.00;99.90;;;;;;5093844;28;20550;-39
2021/05/21 01:55:52;;;;;;;1.95;1.70;;;11.00;99.90;;;;;;5093857;28;20207;-39
2021/05/21 01:58:19;;;;;;;3.00;2.70;;;11.00;99.90;;;;;;5093704;28;20238;-40
2021/05/21 02:00:47;;;;;;;2.55;2.00;;;11.00;99.90;;;;;;5093840;28;20294;-40
2021/05/21 02:03:14;;;;;;;2.00;1.90;;;10.90;99.90;;;;;;5093822;28;20306;-41
2021/05/21 02:05:41;;;;;;;2.63;2.30;;;10.90;99.90;;;;;;5093433;28;20768;-40
2021/05/21 02:08:09;;;;;;;5.18;3.42;;;10.80;99.90;;;;;;5094010;28;20238;-41
2021/05/21 02:10:36;;;;;;;4.75;3.60;;;10.80;99.90;;;;;;5093305;28;20230;-40
2021/05/21 02:13:05;;;;;;;7.97;6.57;;;10.80;99.90;;;;;;5093337;28;20325;-41
2021/05/21 02:15:32;;;;;;;2.55;2.35;;;10.80;99.90;;;;;;5093316;28;20211;-40
2021/05/21 02:18:00;;;;;;;3.53;2.60;;;10.90;99.90;;;;;;5093075;28;20265;-40
2021/05/21 02:20:27;;;;;;;7.78;5.30;;;10.80;99.90;;;;;;5093259;28;20231;-39
2021/05/21 02:22:55;;;;;;;7.07;6.28;;;10.80;99.90;;;;;;5093187;28;20210;-40
2021/05/21 02:25:22;;;;;;;6.60;2.50;;;10.80;99.90;;;;;;5093034;28;20574;-40
2021/05/21 02:27:51;;;;;;;3.10;2.67;;;10.80;99.90;;;;;;5093451;28;20260;-39
2021/05/21 02:30:19;;;;;;;3.67;3.30;;;10.70;99.90;;;;;;5093032;28;20318;-40
2021/05/21 02:32:47;;;;;;;4.45;3.50;;;10.60;99.90;;;;;;5093208;28;20291;-39
2021/05/21 02:35:15;;;;;;;1.40;1.30;;;10.60;99.90;;;;;;5092935;28;20245;-40
2021/05/21 02:37:43;;;;;;;1.77;1.67;;;10.60;99.90;;;;;;5092871;28;20301;-39
2021/05/21 02:40:11;;;;;;;1.80;1.70;;;10.50;99.90;;;;;;5092844;28;20205;-41
2021/05/21 02:42:39;;;;;;;9.73;8.73;;;10.50;99.90;;;;;;5092994;28;20214;-40
2021/05/21 02:45:08;;;;;;;2.25;2.05;;;10.40;99.90;;;;;;5092887;28;20301;-38
2021/05/21 02:47:36;;;;;;;4.30;3.90;;;10.40;99.90;;;;;;5092858;28;20262;-39
2021/05/21 02:50:06;;;;;;;2.10;1.52;;;10.40;99.90;;;;;;5092560;28;20310;-40
2021/05/21 02:52:34;;;;;;;2.58;1.98;;;10.30;99.90;;;;;;5092616;28;20233;-39
2021/05/21 02:55:01;;;;;;;1.75;1.58;;;10.30;99.90;;;;;;5092985;28;20545;-39
2021/05/21 02:57:29;;;;;;;3.05;1.50;;;10.40;99.90;;;;;;5092726;28;20251;-42
2021/05/21 02:59:56;;;;;;;1.83;1.50;;;10.40;99.90;;;;;;5092556;28;20228;-38
2021/05/21 03:02:24;;;;;;;1.70;1.55;;;10.40;99.90;;;;;;5092382;28;20665;-39
2021/05/21 03:04:54;;;;;;;1.73;1.60;;;10.40;99.90;;;;;;5092251;28;20217;-39
2021/05/21 03:07:21;;;;;;;3.20;1.50;;;10.40;99.90;;;;;;5092390;28;20612;-41
2021/05/21 03:09:49;;;;;;;1.50;1.40;;;10.40;99.90;;;;;;5092490;28;20223;-39
2021/05/21 03:12:17;;;;;;;1.40;1.27;;;10.40;99.90;;;;;;5092441;28;20210;-41
2021/05/21 03:14:44;;;;;;;3.78;1.40;;;10.40;99.90;;;;;;5092383;28;20681;-40
2021/05/21 03:17:12;;;;;;;1.75;1.63;;;10.40;99.90;;;;;;5091687;28;20211;-39
2021/05/21 03:19:40;;;;;;;2.25;1.58;;;10.40;99.90;;;;;;5092271;28;20561;-39
2021/05/21 03:22:08;;;;;;;1.80;1.50;;;10.40;99.90;;;;;;5092285;28;20245;-39
2021/05/21 03:24:35;;;;;;;1.40;1.30;;;10.40;99.90;;;;;;5092600;28;20294;-39
2021/05/21 03:27:03;;;;;;;1.58;1.48;;;10.40;99.90;;;;;;5092773;28;20237;-39
2021/05/21 03:29:31;;;;;;;1.10;1.00;;;10.30;99.90;;;;;;5092355;28;20302;-39
2021/05/21 03:31:58;;;;;;;1.38;1.27;;;10.30;99.90;;;;;;5091983;28;20234;-39
2021/05/21 03:34:26;;;;;;;2.17;1.42;;;10.30;99.90;;;;;;5092225;28;20210;-41
2021/05/21 03:36:54;;;;;;;1.52;1.25;;;10.30;99.90;;;;;;5092247;28;20257;-40
2021/05/21 03:39:22;;;;;;;1.63;1.33;;;10.30;99.90;;;;;;5092108;28;20239;-39
2021/05/21 03:41:49;;;;;;;1.52;1.38;;;10.30;99.90;;;;;;5091879;28;20635;-40
2021/05/21 03:44:17;;;;;;;1.10;1.00;;;10.30;99.90;;;;;;5091911;28;20233;-39
2021/05/21 03:46:44;;;;;;;2.10;1.20;;;10.30;99.90;;;;;;5091786;28;20246;-38
2021/05/21 03:49:12;;;;;;;1.75;1.63;;;10.30;99.90;;;;;;5092033;28;20301;-39
2021/05/21 03:51:40;;;;;;;3.20;1.38;;;10.20;99.90;;;;;;5091957;28;20242;-39
2021/05/21 03:54:08;;;;;;;1.48;1.30;;;10.20;99.90;;;;;;5091691;28;20249;-40
2021/05/21 03:56:37;;;;;;;3.30;1.90;;;10.20;99.90;;;;;;5091678;28;20738;-39
2021/05/21 03:59:05;;;;;;;1.77;1.30;;;10.20;99.90;;;;;;5091668;28;20293;-39
2021/05/21 04:01:32;;;;;;;2.17;1.55;;;10.30;99.90;;;;;;5091716;28;20230;-39
2021/05/21 04:04:03;;;;;;;3.20;1.70;;;10.30;99.90;;;;;;5091734;28;20268;-39
2021/05/21 04:06:30;;;;;;;2.15;1.70;;;10.30;99.90;;;;;;5091794;28;20203;-40
2021/05/21 04:08:58;;;;;;;2.13;1.23;;;10.30;99.90;;;;;;5091523;28;20268;-39
2021/05/21 04:11:25;;;;;;;4.18;2.30;;;10.30;99.90;;;;;;5091504;28;20227;-39
2021/05/21 04:13:54;;;;;;;3.05;1.63;;;10.30;99.90;;;;;;5091448;28;20269;-39
2021/05/21 04:16:21;;;;;;;7.72;2.42;;;10.30;99.90;;;;;;5091817;28;20235;-40
2021/05/21 04:18:49;;;;;;;2.85;2.10;;;10.30;99.90;;;;;;5091978;28;20215;-39
2021/05/21 04:21:18;;;;;;;5.35;1.67;;;10.40;99.90;;;;;;5091515;28;20284;-39
2021/05/21 04:23:45;;;;;;;3.67;1.60;;;10.40;99.90;;;;;;5091538;28;20207;-38
2021/05/21 04:26:13;;;;;;;3.28;2.20;;;10.40;99.90;;;;;;5091196;28;20297;-39
2021/05/21 04:28:40;;;;;;;4.28;1.80;;;10.50;99.90;;;;;;5093122;28;20682;-38
2021/05/21 04:31:09;;;;;;;2.13;1.75;;;10.50;99.90;;;;;;5095163;28;20638;-38
2021/05/21 04:33:37;;;;;;;1.85;1.42;;;10.50;99.90;;;;;;5095343;28;20237;-40
2021/05/21 04:36:05;;;;;;;2.03;1.48;;;10.50;99.90;;;;;;5095162;28;20306;-39
2021/05/21 04:38:33;;;;;;;10.70;2.20;;;10.50;99.90;;;;;;5094913;28;20389;-39
2021/05/21 04:41:00;;;;;;;3.72;2.15;;;10.50;99.90;;;;;;5095350;28;20199;-41
2021/05/21 04:43:28;;;;;;;2.83;1.67;;;10.60;99.90;;;;;;5095216;28;20211;-38
2021/05/21 04:45:56;;;;;;;3.10;1.85;;;10.70;99.90;;;;;;5095195;28;20249;-40
2021/05/21 04:48:24;;;;;;;3.20;1.88;;;10.70;99.90;;;;;;5095183;28;20246;-39
2021/05/21 04:50:51;;;;;;;2.97;1.40;;;10.80;99.90;;;;;;5095053;28;20656;-40
2021/05/21 04:53:19;;;;;;;3.17;1.40;;;10.90;99.90;;;;;;5094983;28;20298;-40
2021/05/21 04:55:46;;;;;;;6.57;2.13;;;11.00;99.90;;;;;;5095128;28;20214;-39
2021/05/21 04:58:14;;;;;;;5.65;3.00;;;11.20;99.90;;;;;;5095090;28;20221;-40
2021/05/21 05:00:42;;;;;;;1.77;1.38;;;11.30;99.90;;;;;;5094819;28;20294;-39
2021/05/21 05:03:12;;;;;;;5.57;1.58;;;11.50;99.90;;;;;;5094549;28;20238;-39
2021/05/21 05:05:40;;;;;;;4.63;2.35;;;11.70;99.90;;;;;;5094465;28;20259;-42
2021/05/21 05:08:09;;;;;;;4.05;2.33;;;11.90;99.90;;;;;;5094537;28;20377;-40
2021/05/21 05:10:36;;;;;;;1.98;1.77;;;12.00;99.90;;;;;;5094335;28;20837;-39
2021/05/21 05:13:04;;;;;;;3.38;1.88;;;12.10;99.90;;;;;;5094201;28;20330;-39
2021/05/21 05:15:33;;;;;;;3.45;1.52;;;12.30;99.60;;;;;;5094057;28;20755;-40
2021/05/21 05:18:01;;;;;;;2.47;2.17;;;12.40;99.40;;;;;;5094370;28;20717;-37
2021/05/21 05:20:29;;;;;;;2.92;2.10;;;12.60;99.20;;;;;;5094147;28;20236;-38
2021/05/21 05:22:57;;;;;;;3.67;2.33;;;12.60;98.90;;;;;;5094353;28;20210;-37
2021/05/21 05:25:25;;;;;;;4.15;2.15;;;12.80;98.70;;;;;;5094599;28;20211;-37
2021/05/21 05:27:53;;;;;;;3.40;2.03;;;12.80;98.50;;;;;;5094338;28;20238;-39
2021/05/21 05:30:21;;;;;;;2.42;1.88;;;12.90;98.40;;;;;;5094141;28;20682;-38
2021/05/21 05:32:49;;;;;;;2.30;1.90;;;12.90;98.30;;;;;;5094015;28;20242;-38
2021/05/21 05:35:16;;;;;;;4.68;2.67;;;12.90;98.20;;;;;;5094130;28;20557;-39
2021/05/21 05:37:44;;;;;;;3.42;1.95;;;12.90;98.20;;;;;;5094263;28;20234;-38
2021/05/21 05:40:12;;;;;;;5.85;2.83;;;13.00;97.90;;;;;;5093523;28;20249;-39
2021/05/21 05:42:40;;;;;;;3.35;1.80;;;13.10;97.70;;;;;;5094041;28;20260;-37
2021/05/21 05:45:09;;;;;;;3.42;2.58;;;13.10;97.90;;;;;;5093975;28;20673;-37
2021/05/21 05:47:37;;;;;;;2.75;2.10;;;13.20;97.50;;;;;;5093870;28;20250;-39
2021/05/21 05:50:05;;;;;;;2.35;1.33;;;13.30;97.30;;;;;;5094097;28;20203;-40
2021/05/21 05:52:33;;;;;;;1.83;1.30;;;13.50;97.10;;;;;;5093990;28;20227;-39
2021/05/21 05:55:00;;;;;;;1.88;1.50;;;13.70;96.80;;;;;;5093985;28;20207;-40
2021/05/21 05:57:28;;;;;;;1.67;1.33;;;13.80;96.40;;;;;;5093668;28;20293;-40
2021/05/21 05:59:56;;;;;;;1.23;1.10;;;14.00;96.20;;;;;;5093720;28;20297;-40
2021/05/21 06:02:23;;;;;;;2.50;1.10;;;14.10;95.90;;;;;;5093921;28;20577;-40
2021/05/21 06:04:52;;;;;;;1.92;1.08;;;14.30;95.50;;;;;;5093812;28;20266;-40
2021/05/21 06:07:19;;;;;;;3.03;1.30;;;14.40;95.20;;;;;;5093664;28;20629;-40
2021/05/21 06:09:46;;;;;;;2.75;1.02;;;14.50;95.10;;;;;;5093440;28;20581;-39
2021/05/21 06:12:14;;;;;;;2.40;1.20;;;14.70;94.90;;;;;;5093449;28;20223;-40
2021/05/21 06:14:42;;;;;;;3.20;1.42;;;14.70;94.60;;;;;;5093272;28;20256;-40
2021/05/21 06:17:10;;;;;;;6.72;2.25;;;14.70;94.60;;;;;;5093503;28;20253;-39
2021/05/21 06:19:37;;;;;;;30.70;4.05;;;14.80;94.40;;;;;;5093226;28;20218;-38
2021/05/21 06:22:05;;;;;;;11.38;2.08;;;14.90;94.30;;;;;;5093194;28;20249;-41
2021/05/21 06:24:32;;;;;;;5.47;1.77;;;15.10;94.20;;;;;;5093461;28;20267;-39
2021/05/21 06:27:15;;;;;;;2.60;1.33;;;15.20;94.00;;;;;;5092475;28;20569;-40
2021/05/21 06:29:44;;;;;;;5.05;1.35;;;15.30;93.80;;;;;;5093410;28;20242;-41
2021/05/21 06:32:11;;;;;;;2.63;1.27;;;15.50;93.60;;;;;;5092939;28;20663;-39
2021/05/21 06:34:39;;;;;;;5.45;1.67;;;15.80;93.30;;;;;;5093131;28;20249;-42
2021/05/21 06:37:06;;;;;;;2.10;1.38;;;15.90;93.00;;;;;;5093051;28;20238;-40
2021/05/21 06:39:34;;;;;;;11.07;7.30;;;16.00;92.80;;;;;;5092805;28;20206;-40
2021/05/21 06:42:01;;;;;;;5.07;1.98;;;16.10;92.90;;;;;;5093185;28;20352;-40
2021/05/21 06:44:31;;;;;;;2.85;1.10;;;16.10;92.90;;;;;;5093031;28;20256;-39
2021/05/21 06:46:59;;;;;;;1.23;1.13;;;16.10;93.10;;;;;;5092960;28;20642;-40
2021/05/21 06:49:27;;;;;;;5.88;1.55;;;16.10;92.80;;;;;;5092809;28;20746;-39
2021/05/21 06:51:54;;;;;;;6.65;1.15;;;16.10;92.80;;;;;;5091880;28;20384;-40
2021/05/21 06:54:22;;;;;;;1.40;1.05;;;16.20;92.70;;;;;;5092603;28;20254;-40
2021/05/21 06:56:49;;;;;;;11.18;2.03;;;16.40;92.60;;;;;;5092731;28;20233;-41
2021/05/21 06:59:16;;;;;;;1.70;1.13;;;16.60;92.40;;;;;;5092681;28;20351;-41
2021/05/21 07:01:45;;;;;;;2.10;1.38;;;16.70;92.10;;;;;;5092240;28;20202;-41
2021/05/21 07:04:13;;;;;;;9.63;1.80;;;16.80;92.00;;;;;;5092547;28;20207;-41
2021/05/21 07:06:41;;;;;;;12.77;1.75;;;16.90;91.80;;;;;;5092258;28;20649;-40
2021/05/21 07:09:08;;;;;;;14.38;4.07;;;17.10;91.50;;;;;;5092577;28;20290;-42
2021/05/21 07:11:36;;;;;;;5.22;1.38;;;17.10;91.50;;;;;;5092635;28;20363;-40
2021/05/21 07:14:04;;;;;;;4.88;1.20;;;17.20;91.40;;;;;;5092109;28;20744;-40
2021/05/21 07:16:32;;;;;;;3.47;1.30;;;17.10;91.20;;;;;;5092339;28;20500;-41
2021/05/21 07:19:04;;;;;;;1.02;1.00;;;17.00;91.20;;;;;;5092349;28;20864;-42
2021/05/21 07:21:32;;;;;;;726.25;79.38;;;16.90;91.40;;;;;;5092270;28;20726;-43
2021/05/21 07:24:00;;;;;;;3.00;1.63;;;16.80;91.70;;;;;;5092370;28;20206;-41
2021/05/21 07:26:30;;;;;;;2.85;1.70;;;16.90;91.30;;;;;;5092287;28;20207;-41
2021/05/21 07:28:58;;;;;;;1.55;1.02;;;16.90;91.10;;;;;;5092193;28;20616;-40
2021/05/21 07:31:27;;;;;;;28.92;4.05;;;16.90;91.00;;;;;;5091984;28;20268;-41
2021/05/21 07:33:55;;;;;;;5.22;1.73;;;17.00;90.80;;;;;;5092542;28;20435;-40
2021/05/21 07:36:23;;;;;;;3.03;2.10;;;17.20;90.60;;;;;;5092355;28;20576;-41
2021/05/21 07:38:52;;;;;;;4.35;2.05;;;17.30;90.20;;;;;;5092246;28;20246;-41
2021/05/21 07:41:24;;;;;;;3.33;1.73;;;17.40;90.00;;;;;;5091747;28;20199;-40
2021/05/21 07:43:52;;;;;;;5.50;2.50;;;17.50;89.70;;;;;;5092145;28;20298;-40
2021/05/21 07:46:20;;;;;;;5.85;1.88;;;17.60;89.50;;;;;;5092466;28;20238;-42
2021/05/21 07:48:49;;;;;;;3.40;2.17;;;17.70;88.80;;;;;;5092158;28;20724;-40
2021/05/21 07:51:17;;;;;;;2.88;1.20;;;17.60;88.60;;;;;;5092011;28;20673;-40
2021/05/21 07:53:45;;;;;;;1.35;0.98;;;17.70;88.50;;;;;;5092325;28;20289;-40
2021/05/21 07:56:15;;;;;;;3.65;2.08;;;17.70;88.10;;;;;;5092126;28;20214;-40
2021/05/21 07:58:42;;;;;;;4.15;3.15;;;17.80;88.00;;;;;;5091961;28;20257;-41
2021/05/21 08:01:10;;;;;;;0.70;0.70;;;17.90;86.70;;;;;;5091999;28;20207;-40
2021/05/21 08:03:37;;;;;;;1.70;1.27;;;18.20;85.90;;;;;;5093724;28;20695;-40
2021/05/21 08:06:05;;;;;;;2.92;1.35;;;18.50;84.80;;;;;;5095883;28;20237;-40
2021/05/21 08:08:32;;;;;;;6.05;2.20;;;18.70;83.50;;;;;;5096046;28;20294;-41
2021/05/21 08:11:01;;;;;;;2.10;1.83;;;18.90;82.20;;;;;;5095826;28;20206;-40
2021/05/21 08:13:30;;;;;;;2.17;1.80;;;19.00;80.60;;;;;;5095295;28;20284;-40
2021/05/21 08:15:57;;;;;;;1.20;0.95;;;18.80;78.40;;;;;;5095764;28;20279;-40
2021/05/21 08:18:25;;;;;;;2.35;1.92;;;18.60;78.60;;;;;;5095754;28;20293;-40
2021/05/21 08:20:52;;;;;;;1.73;1.10;;;18.30;78.70;;;;;;5095708;28;20234;-42
2021/05/21 08:23:20;;;;;;;1.83;1.35;;;18.10;78.90;;;;;;5095677;28;20202;-40
2021/05/21 08:25:47;;;;;;;1.13;1.00;;;18.00;79.10;;;;;;5095560;28;20241;-40
2021/05/21 08:28:15;;;;;;;1.30;1.00;;;17.90;79.20;;;;;;5095566;28;20211;-41
2021/05/21 08:30:43;;;;;;;2.58;0.80;;;18.00;79.10;;;;;;5095509;28;20341;-40
2021/05/21 08:33:12;;;;;;;1.45;0.85;;;18.10;79.10;;;;;;5095231;28;20769;-42
2021/05/21 08:35:39;;;;;;;1.98;0.80;;;18.20;78.80;;;;;;5095276;28;20728;-40
2021/05/21 08:38:07;;;;;;;4.45;1.10;;;18.30;78.40;;;;;;5095290;28;20260;-41
2021/05/21 08:40:37;;;;;;;2.60;1.15;;;18.30;79.00;;;;;;5095057;28;20211;-40
2021/05/21 08:43:08;;;;;;;1.75;0.70;;;18.40;78.20;;;;;;5095279;28;20203;-40
2021/05/21 08:45:36;;;;;;;1.30;0.77;;;18.50;78.20;;;;;;5095325;28;20289;-40
2021/05/21 08:48:05;;;;;;;1.80;0.95;;;18.60;78.20;;;;;;5095071;28;20230;-40
2021/05/21 08:50:33;;;;;;;1.73;1.05;;;18.70;78.30;;;;;;5094989;28;20287;-40
2021/05/21 08:53:00;;;;;;;2.88;1.00;;;18.80;78.00;;;;;;5094785;28;20309;-40
2021/05/21 08:55:28;;;;;;;1.05;0.70;;;18.80;77.70;;;;;;5095101;28;20226;-40
2021/05/21 08:57:55;;;;;;;2.05;0.80;;;18.90;77.30;;;;;;5095108;28;20238;-40
2021/05/21 09:00:23;;;;;;;1.58;1.13;;;18.80;77.30;;;;;;5095031;28;20298;-39
2021/05/21 09:02:51;;;;;;;2.15;1.27;;;18.80;77.50;;;;;;5094690;28;20242;-40
2021/05/21 09:05:19;;;;;;;1.45;1.35;;;18.80;77.70;;;;;;5094760;28;20261;-40
2021/05/21 09:07:46;;;;;;;1.10;0.80;;;18.80;77.10;;;;;;5095057;28;20256;-40
2021/05/21 09:10:16;;;;;;;2.05;0.75;;;18.70;77.10;;;;;;5094719;28;20301;-41
2021/05/21 09:12:46;;;;;;;0.85;0.65;;;18.60;77.30;;;;;;5094494;28;20279;-40
2021/05/21 09:15:15;;;;;;;0.95;0.80;;;18.60;77.40;;;;;;5093744;28;20305;-41
2021/05/21 09:17:56;;;;;;;2.15;0.80;;;18.60;77.60;;;;;;5094502;28;20210;-40
2021/05/21 09:20:27;;;;;;;1.15;1.05;;;18.70;77.30;;;;;;5094228;28;20250;-40
2021/05/21 09:23:06;;;;;;;2.30;0.80;;;18.70;77.10;;;;;;5094370;28;20281;-40
2021/05/21 09:25:38;;;;;;;1.00;0.80;;;18.70;76.80;;;;;;5094442;28;20242;-40
2021/05/21 09:28:05;;;;;;;1.27;1.02;;;18.80;77.30;;;;;;5094370;28;20372;-40
2021/05/21 09:30:33;;;;;;;1.83;0.90;;;18.90;76.90;;;;;;5094444;28;20301;-40
2021/05/21 09:33:04;;;;;;;1.95;1.10;;;19.00;76.90;;;;;;5094266;28;20248;-41
2021/05/21 09:35:33;;;;;;;1.73;1.15;;;19.10;76.80;;;;;;5094256;28;20257;-41
2021/05/21 09:38:01;;;;;;;1.70;1.15;;;19.30;76.60;;;;;;5094018;28;20210;-40
2021/05/21 09:40:30;;;;;;;5.85;0.90;;;19.30;76.30;;;;;;5094061;28;20290;-40
2021/05/21 09:43:00;;;;;;;1.73;1.33;;;19.20;77.50;;;;;;5093940;28;20300;-41
2021/05/21 09:45:32;;;;;;;4.32;1.88;;;19.00;77.50;;;;;;5094190;28;20234;-40
2021/05/21 09:48:02;;;;;;;1.52;1.38;;;18.80;77.90;;;;;;5093978;28;20665;-40
2021/05/21 09:50:36;;;;;;;2.67;1.65;;;18.70;77.90;;;;;;5093920;28;20211;-40
2021/05/21 09:53:07;;;;;;;8.27;2.00;;;18.60;78.20;;;;;;5093738;28;20254;-40
2021/05/21 09:55:40;;;;;;;5.25;1.42;;;18.60;78.60;;;;;;5093987;28;20317;-40
2021/05/21 09:58:08;;;;;;;8.52;1.70;;;18.60;78.90;;;;;;5094035;28;20237;-40
2021/05/21 10:00:36;;;;;;;2.55;0.88;;;18.50;79.10;;;;;;5093781;28;20245;-40
2021/05/21 10:03:03;;;;;;;3.45;1.20;;;18.30;78.60;;;;;;5093484;28;20213;-40
2021/05/21 10:05:51;;;;;;;1.73;1.50;;;18.10;79.20;;;;;;5093450;28;20213;-40
2021/05/21 10:08:22;;;;;;;2.75;1.00;;;17.80;80.30;;;;;;5093772;28;20268;-41
2021/05/21 10:10:50;;;;;;;2.85;0.90;;;17.50;82.20;;;;;;5093727;28;20271;-39
2021/05/21 10:13:17;;;;;;;3.53;1.20;;;17.30;85.20;;;;;;5093317;28;20307;-39
2021/05/21 10:15:45;;;;;;;1.80;0.90;;;17.00;87.10;;;;;;5093295;28;20207;-39
2021/05/21 10:18:13;;;;;;;5.00;1.40;;;16.80;89.50;;;;;;5093203;28;20573;-39
2021/05/21 10:20:43;;;;;;;3.38;1.58;;;16.50;90.80;;;;;;5093536;28;20230;-41
2021/05/21 10:23:18;;;;;;;3.08;1.20;;;16.20;92.10;;;;;;5093526;28;20227;-40
2021/05/21 10:25:46;;;;;;;3.28;1.10;;;15.90;93.60;;;;;;5092913;28;20220;-39
2021/05/21 10:28:18;;;;;;;2.60;1.30;;;15.60;94.30;;;;;;5092867;28;20206;-39
2021/05/21 10:30:46;;;;;;;3.13;1.40;;;15.40;95.40;;;;;;5092905;28;20206;-39
2021/05/21 10:33:16;;;;;;;5.40;1.65;;;15.20;96.30;;;;;;5093127;28;20254;-40
2021/05/21 10:35:44;;;;;;;2.40;1.13;;;15.00;97.30;;;;;;5093208;28;20214;-40
2021/05/21 10:38:21;;;;;;;3.78;1.40;;;14.80;98.60;;;;;;5093108;28;20242;-40
2021/05/21 10:41:11;;;;;;;3.13;1.35;;;14.60;99.80;;;;;;5093036;28;20249;-40
2021/05/21 10:43:47;;;;;;;5.90;1.73;;;14.50;99.90;;;;;;5093332;28;20221;-39
2021/05/21 10:46:16;;;;;;;10.13;2.67;;;14.40;99.90;;;;;;5092966;28;20241;-40
2021/05/21 10:48:53;;;;;;;46.10;5.60;;;14.40;99.90;;;;;;5093100;28;20264;-39
2021/05/21 10:51:21;;;;;;;3.00;1.55;;;14.50;99.90;;;;;;5092694;28;20245;-42
2021/05/21 10:54:26;;;;;;;4.95;1.60;;;14.70;99.90;;;;;;5092494;28;20223;-41
2021/05/21 10:56:57;;;;;;;2.95;1.40;;;14.90;99.90;;;;;;5092760;28;20210;-40
2021/05/21 10:59:54;;;;;;;6.00;2.97;;;14.90;99.90;;;;;;5092768;28;20684;-41
2021/05/21 11:02:22;;;;;;;2.45;1.55;;;14.90;99.90;;;;;;5092655;28;20205;-40
2021/05/21 11:04:51;;;;;;;1.50;1.10;;;14.80;99.90;;;;;;5092711;28;20211;-40
2021/05/21 11:07:32;;;;;;;1.10;1.00;;;14.70;99.90;;;;;;5092752;28;20294;-40
2021/05/21 11:10:00;;;;;;;1.20;1.02;;;14.60;99.90;;;;;;5092475;28;20221;-40
2021/05/21 11:12:43;;;;;;;1.40;1.30;;;14.60;99.90;;;;;;5092266;28;20235;-41
2021/05/21 11:15:35;;;;;;;1.98;1.50;;;14.60;99.90;;;;;;5092782;28;20218;-40
2021/05/21 11:18:27;;;;;;;1.77;1.05;;;14.60;99.90;;;;;;5092452;28;20221;-39
2021/05/21 11:20:58;;;;;;;2.38;1.83;;;14.70;99.90;;;;;;5092295;28;20256;-40
2021/05/21 11:23:28;;;;;;;1.55;1.20;;;14.70;99.90;;;;;;5092353;28;20222;-40
2021/05/21 11:26:25;;;;;;;1.92;1.00;;;14.60;99.90;;;;;;5092316;28;20206;-40
2021/05/21 11:28:55;;;;;;;2.72;1.90;;;14.50;99.90;;;;;;5092301;28;20259;-39
2021/05/21 11:31:25;;;;;;;2.25;0.95;;;14.30;99.90;;;;;;5092393;28;20230;-39
2021/05/21 11:33:58;;;;;;;1.23;1.13;;;14.30;99.90;;;;;;5092507;28;20325;-41
2021/05/21 11:36:28;;;;;;;0.95;0.90;;;14.20;99.90;;;;;;5092061;28;20545;-40
2021/05/21 11:38:55;;;;;;;1.73;1.08;;;14.20;99.90;;;;;;5091491;28;20244;-41
2021/05/21 11:41:30;;;;;;;1.98;0.93;;;14.20;99.90;;;;;;5091902;28;20206;-41
2021/05/21 11:44:02;;;;;;;1.25;1.15;;;14.20;99.90;;;;;;5092402;28;20248;-41
2021/05/21 11:46:35;;;;;;;1.27;0.90;;;14.20;99.90;;;;;;5092291;28;20492;-41
2021/05/21 11:49:07;;;;;;;3.47;2.10;;;14.20;99.90;;;;;;5091899;28;20202;-41
2021/05/21 11:51:35;;;;;;;1.30;1.20;;;14.40;99.90;;;;;;5091157;28;20249;-42
2021/05/21 11:54:04;;;;;;;2.28;1.27;;;14.40;99.90;;;;;;5091493;28;20313;-41
2021/05/21 11:56:34;;;;;;;1.40;1.30;;;14.50;99.90;;;;;;5092062;28;20211;-39
2021/05/21 11:59:03;;;;;;;2.05;1.48;;;14.60;99.90;;;;;;5092115;28;20203;-41
2021/05/21 12:01:32;;;;;;;1.98;1.15;;;14.60;99.90;;;;;;5091478;28;20210;-41
2021/05/21 12:04:04;;;;;;;0.85;0.82;;;14.60;99.90;;;;;;5091659;28;20259;-41
2021/05/21 12:06:32;;;;;;;1.95;1.58;;;14.60;99.90;;;;;;5091769;28;20623;-42
2021/05/21 12:08:59;;;;;;;2.22;1.70;;;14.60;99.90;;;;;;5091705;28;20635;-43
2021/05/21 12:11:27;;;;;;;1.35;1.10;;;14.70;99.90;;;;;;5091608;28;20284;-40
2021/05/21 12:14:01;;;;;;;2.33;1.35;;;14.80;99.90;;;;;;5091355;28;20326;-40
2021/05/21 12:16:30;;;;;;;1.00;0.90;;;14.80;99.90;;;;;;5091466;28;20624;-40
2021/05/21 12:18:59;;;;;;;2.58;2.13;;;14.80;99.90;;;;;;5091450;28;20206;-40
2021/05/21 12:21:29;;;;;;;1.27;1.02;;;14.90;99.90;;;;;;5091156;28;20293;-38
2021/05/21 12:23:57;;;;;;;0.88;0.70;;;14.90;99.90;;;;;;5091390;28;20668;-39
2021/05/21 12:26:27;;;;;;;1.02;0.93;;;14.80;99.90;;;;;;5091494;28;20251;-40
2021/05/21 12:28:56;;;;;;;1.13;1.02;;;14.80;99.90;;;;;;5090698;28;20294;-38
2021/05/21 12:31:27;;;;;;;1.45;1.10;;;14.70;99.90;;;;;;5091144;28;20207;-39
2021/05/21 12:33:56;;;;;;;0.73;0.73;;;14.50;99.90;;;;;;5091507;28;20258;-39
2021/05/21 12:36:25;;;;;;;1.08;0.98;;;14.50;99.90;;;;;;5091689;28;20207;-37
2021/05/21 12:38:56;;;;;;;1.40;1.20;;;14.40;99.90;;;;;;5091268;28;20301;-38
2021/05/21 12:41:28;;;;;;;0.70;0.70;;;14.50;99.90;;;;;;5091388;28;20622;-41
2021/05/21 12:44:10;;;;;;;0.75;0.50;;;14.50;99.90;;;;;;5091516;28;20290;-38
2021/05/21 12:46:49;;;;;;;0.63;0.63;;;14.50;99.90;;;;;;5091590;28;20210;-37
2021/05/21 12:49:23;;;;;;;0.55;0.50;;;14.50;99.90;;;;;;5091471;28;20206;-37
2021/05/21 12:51:52;;;;;;;2.08;0.77;;;14.50;99.90;;;;;;5094813;28;20235;-37
2021/05/21 12:54:26;;;;;;;1.08;0.98;;;14.50;99.90;;;;;;5094990;28;20261;-38